Portada
METAR-TAF:

METAR-TAF

Aeroports :

Nuuk, Grenlàndia

latitud: 64-10N, longitud: 051-45W, altitud: 80 m

Observació

L'informe es va fer fa 46 minuts, a les 21:50 UTC
Vent 7 kt del Est/Nord-Est
Temperatura -7°C
Humitat 86%
Pressió 1015 hPa
Visibilitat 10 km o més
Escasses núvols a una alçada de 2000 ft

METAR: BGGH 202150Z 06007KT 9999 FEW020 M07/M09 Q1015

Hora: 19:36 (22:36 UTC)

Pronòstic

L'informe es va fer fa 5 hores i 27 minuts, a les 17:09 UTC
Pronòstic vàlid del 20 a les 18 UTC al 20 a les 24 UTC
Vent 8 kt del Nord-Est
Visibilitat 10 km o més
Escasses núvols a una alçada de 2000 ft

TAF: BGGH 201709Z 2018/2024 04008KT 9999 FEW020

Observacions i pronòstics meteorològics de més de 4000 aeroports (METAR i TAF).

Les estacions disponibles són els punts grocs i vermells al mapa.

Posi el ratolí al punt desitjat per veure el nom de l'estació.

Feu clic per veure les observacions i els pronòstics meteorològics.

Per canviar el mapa: feu clic els botons verds amb una creu de color negre per apropar; al botó verd amb un guió per allunyar la imatge; o en les fletxes verdes per a mapes adjacents.


METAR-TAF: